Terminal Aerodrome Forecast
Issued by NWS

Home | Current Version | Previous Version | Text Only | Print | Product List | Glossary On
Versions: 1 2 3 4 5 6 7 8 9 10 11 12 13 14
000
FTUS41 KLWX 281735 AAB
TAFMTN
TAF AMD
KMTN 281735Z 2818/2918 13007KT P6SM -SHRA BKN050
     FM281900 13007KT P6SM -SHRA BKN035
     FM290400 11008KT 5SM SHRA OVC008
     FM290800 11004KT 3SM SHRA OVC003
     FM291200 18005KT P6SM BKN003
     FM291500 24005KT P6SM BKN008
     FM291600 25006KT P6SM BKN015=

USA.gov is the U.S. government's official web portal to all federal, state and local government web resources and services.